Terminal Aerodrome Forecast
Issued by NWS Louisville, KY

Home | Current Version | Previous Version | Text Only | Print | Product List | Glossary On
Versions: 1 2 3 4 5 6 7 8 9 10 11 12 13 14 15 16 17 18 19 20 21 22 23
865
FTUS43 KLMK 171123
TAFSDF
TAF
KSDF 171123Z 1712/1818 25010KT P6SM BKN250 WS019/27041KT
     FM171300 22011G19KT P6SM FEW250
     FM180000 21006KT P6SM SCT250
     FM181200 22007KT P6SM BKN100=

USA.gov is the U.S. government's official web portal to all federal, state and local government web resources and services.